Time;durP1;ratioP1;P1;durP2;ratioP2;P2;SDS_P1;SDS_P2;PMS_P1;PMS_P2;Temp;Humidity;BMP_temperature;BMP_pressure;BME280_temperature;BME280_humidity;BME280_pressure;Samples;Min_cycle;Max_cycle;Signal;HPM_P1;HPM_P2
2024/01/22 00:02:19;;;;;;;16.42;8.35;;;;;;;;;;6140796;28;20039;-78
2024/01/22 00:05:21;;;;;;;16.55;7.80;;;;;;;;;;6165121;28;20043;-79
2024/01/22 00:08:23;;;;;;;20.30;8.15;;;;;;;;;;6163652;28;20535;-78
2024/01/22 00:11:25;;;;;;;16.85;7.53;;;;;;;;;;6138581;28;20159;-78
2024/01/22 00:14:27;;;;;;;16.25;7.55;;;;;;;;;;6144532;28;20494;-79
2024/01/22 00:17:28;;;;;;;18.40;8.30;;;;;;;;;;6135358;28;20508;-80
2024/01/22 00:20:30;;;;;;;14.70;6.70;;;;;;;;;;6143336;28;20177;-78
2024/01/22 00:23:32;;;;;;;16.38;7.30;;;;;;;;;;6146607;28;20075;-80
2024/01/22 00:26:34;;;;;;;15.60;6.97;;;;;;;;;;6149170;28;20561;-80
2024/01/22 00:29:37;;;;;;;11.25;6.10;;;;;;;;;;6125257;28;20137;-78
2024/01/22 00:32:38;;;;;;;13.88;6.38;;;;;;;;;;6144265;28;20237;-79
2024/01/22 00:35:41;;;;;;;11.63;5.80;;;;;;;;;;6155735;28;20129;-79
2024/01/22 00:38:42;;;;;;;12.98;5.55;;;;;;;;;;6145249;28;20046;-79
2024/01/22 00:41:45;;;;;;;15.65;5.85;;;;;;;;;;6143948;28;20076;-79
2024/01/22 00:44:46;;;;;;;10.95;5.95;;;;;;;;;;6151073;28;20073;-78
2024/01/22 00:47:48;;;;;;;13.27;6.15;;;;;;;;;;6138476;28;20047;-79
2024/01/22 00:50:50;;;;;;;10.48;5.63;;;;;;;;;;6146195;28;20497;-79
2024/01/22 00:53:52;;;;;;;12.15;6.18;;;;;;;;;;6151171;28;20054;-78
2024/01/22 00:56:55;;;;;;;16.90;6.15;;;;;;;;;;6138795;28;20074;-78
2024/01/22 00:59:57;;;;;;;13.35;5.68;;;;;;;;;;6146163;28;20218;-78
2024/01/22 01:02:59;;;;;;;12.98;6.07;;;;;;;;;;6139105;28;20055;-79
2024/01/22 01:06:01;;;;;;;16.63;6.07;;;;;;;;;;6149707;28;20060;-78
2024/01/22 01:09:02;;;;;;;13.52;6.03;;;;;;;;;;6142310;28;20050;-77
2024/01/22 01:12:04;;;;;;;14.15;6.53;;;;;;;;;;6127607;28;20103;-78
2024/01/22 01:15:07;;;;;;;13.10;5.50;;;;;;;;;;6137610;28;20066;-79
2024/01/22 01:18:09;;;;;;;14.30;5.93;;;;;;;;;;6146350;28;20478;-79
2024/01/22 01:21:11;;;;;;;16.05;5.60;;;;;;;;;;6153572;28;20046;-80
2024/01/22 01:24:12;;;;;;;11.30;5.13;;;;;;;;;;6144494;28;20047;-79
2024/01/22 01:27:17;;;;;;;14.52;5.32;;;;;;;;;;6150624;28;20053;-77
2024/01/22 01:30:19;;;;;;;10.73;5.53;;;;;;;;;;6165371;28;20043;-81
2024/01/22 01:33:21;;;;;;;14.50;4.78;;;;;;;;;;6145500;28;20043;-79
2024/01/22 01:36:23;;;;;;;11.18;5.10;;;;;;;;;;6154278;28;20054;-79
2024/01/22 01:39:24;;;;;;;9.02;5.10;;;;;;;;;;6150557;28;20043;-78
2024/01/22 01:42:26;;;;;;;16.20;5.75;;;;;;;;;;6143703;28;20076;-78
2024/01/22 01:45:28;;;;;;;10.23;5.10;;;;;;;;;;6149247;28;20249;-79
2024/01/22 01:48:30;;;;;;;10.48;4.72;;;;;;;;;;6140811;28;20333;-80
2024/01/22 01:51:32;;;;;;;12.27;5.57;;;;;;;;;;6120378;28;20355;-79
2024/01/22 01:54:35;;;;;;;13.02;5.30;;;;;;;;;;6145122;28;20182;-80
2024/01/22 01:57:38;;;;;;;6.88;4.47;;;;;;;;;;6143030;28;20134;-79
2024/01/22 02:00:45;;;;;;;11.10;5.10;;;;;;;;;;6152615;28;20062;-79
2024/01/22 02:03:47;;;;;;;14.35;5.50;;;;;;;;;;6153218;28;20054;-80
2024/01/22 02:06:49;;;;;;;10.40;4.63;;;;;;;;;;6153432;28;20051;-79
2024/01/22 02:09:53;;;;;;;11.10;4.50;;;;;;;;;;6148356;28;20436;-79
2024/01/22 02:12:55;;;;;;;8.50;4.82;;;;;;;;;;6143785;28;20047;-79
2024/01/22 02:15:57;;;;;;;8.27;4.90;;;;;;;;;;6146852;28;20425;-79
2024/01/22 02:18:58;;;;;;;12.15;4.53;;;;;;;;;;6140970;28;20047;-80
2024/01/22 02:22:01;;;;;;;10.43;4.30;;;;;;;;;;6149122;28;20047;-78
2024/01/22 02:25:03;;;;;;;13.15;4.30;;;;;;;;;;6148086;28;20047;-79
2024/01/22 02:28:05;;;;;;;10.95;5.28;;;;;;;;;;6143393;28;20050;-79
2024/01/22 02:31:08;;;;;;;10.70;4.28;;;;;;;;;;6142687;28;20054;-80
2024/01/22 02:34:11;;;;;;;6.50;3.42;;;;;;;;;;6149533;28;20067;-80
2024/01/22 02:37:15;;;;;;;;;;;;;;;;;;6129119;28;20048;-79
2024/01/22 02:40:16;;;;;;;8.50;4.13;;;;;;;;;;6146993;28;19929;-79
2024/01/22 02:43:18;;;;;;;9.60;3.38;;;;;;;;;;6140860;28;20274;-80
2024/01/22 02:46:20;;;;;;;8.45;4.07;;;;;;;;;;6149183;28;20146;-80
2024/01/22 02:49:22;;;;;;;8.00;3.75;;;;;;;;;;6134641;28;20046;-80
2024/01/22 02:52:24;;;;;;;6.75;3.50;;;;;;;;;;6139452;28;20132;-80
2024/01/22 02:55:25;;;;;;;6.88;3.63;;;;;;;;;;6126974;28;20130;-79
2024/01/22 02:58:29;;;;;;;4.93;3.10;;;;;;;;;;6142583;28;20063;-80
2024/01/22 03:01:30;;;;;;;;;;;;;;;;;;6154322;28;20070;-80
2024/01/22 03:04:32;;;;;;;13.68;4.57;;;;;;;;;;6149320;28;20793;-79
2024/01/22 03:07:34;;;;;;;10.13;3.78;;;;;;;;;;6131626;28;20178;-80
2024/01/22 03:10:36;;;;;;;4.95;3.20;;;;;;;;;;6147424;28;20163;-80
2024/01/22 03:13:37;;;;;;;7.25;2.92;;;;;;;;;;6144262;28;20050;-80
2024/01/22 03:16:39;;;;;;;5.68;2.83;;;;;;;;;;6157384;28;20076;-81
2024/01/22 03:19:41;;;;;;;7.00;3.20;;;;;;;;;;6151129;28;20045;-80
2024/01/22 03:22:43;;;;;;;5.15;3.10;;;;;;;;;;6127011;28;20046;-80
2024/01/22 03:25:45;;;;;;;8.38;3.17;;;;;;;;;;6135666;28;20343;-79
2024/01/22 03:28:49;;;;;;;4.63;2.35;;;;;;;;;;6146077;28;20062;-80
2024/01/22 03:31:50;;;;;;;6.47;2.72;;;;;;;;;;6150264;28;20047;-80
2024/01/22 03:34:52;;;;;;;6.65;2.53;;;;;;;;;;6135584;28;20560;-78
2024/01/22 03:37:54;;;;;;;5.55;2.75;;;;;;;;;;6120627;28;1100896;-79
2024/01/22 03:40:55;;;;;;;5.18;2.50;;;;;;;;;;6145258;28;20050;-80
2024/01/22 03:43:57;;;;;;;6.18;2.70;;;;;;;;;;6144444;28;20044;-81
2024/01/22 03:46:59;;;;;;;6.03;2.90;;;;;;;;;;6144233;28;20079;-80
2024/01/22 03:50:03;;;;;;;4.65;2.80;;;;;;;;;;6150481;28;20057;-81
2024/01/22 03:53:05;;;;;;;4.63;2.33;;;;;;;;;;6144333;28;20054;-80
2024/01/22 03:56:07;;;;;;;9.85;2.70;;;;;;;;;;6136169;28;20129;-81
2024/01/22 03:59:09;;;;;;;3.28;2.03;;;;;;;;;;6141609;28;20106;-81
2024/01/22 04:02:11;;;;;;;4.03;2.40;;;;;;;;;;6140983;28;20039;-81
2024/01/22 04:05:13;;;;;;;5.93;2.78;;;;;;;;;;6139115;28;20053;-81
2024/01/22 04:08:15;;;;;;;5.05;2.50;;;;;;;;;;6148763;28;20112;-80
2024/01/22 04:11:17;;;;;;;4.95;2.60;;;;;;;;;;6159708;28;20556;-80
2024/01/22 04:14:20;;;;;;;4.53;2.72;;;;;;;;;;6141167;28;20426;-79
2024/01/22 04:17:21;;;;;;;3.85;2.55;;;;;;;;;;6118616;28;20078;-80
2024/01/22 04:20:23;;;;;;;3.78;2.20;;;;;;;;;;6144822;28;20054;-79
2024/01/22 04:23:25;;;;;;;4.15;2.55;;;;;;;;;;6145679;28;20042;-79
2024/01/22 04:26:26;;;;;;;4.47;2.58;;;;;;;;;;6139597;28;20047;-80
2024/01/22 04:29:28;;;;;;;3.63;2.20;;;;;;;;;;6149265;28;20120;-79
2024/01/22 04:32:30;;;;;;;4.63;2.33;;;;;;;;;;6126759;28;20085;-80
2024/01/22 04:35:31;;;;;;;6.32;2.63;;;;;;;;;;6148738;28;20062;-79
2024/01/22 04:38:33;;;;;;;4.05;2.20;;;;;;;;;;6155628;28;20513;-80
2024/01/22 04:41:35;;;;;;;7.20;2.50;;;;;;;;;;6136885;28;20090;-78
2024/01/22 04:44:38;;;;;;;7.82;3.05;;;;;;;;;;6153311;28;20050;-80
2024/01/22 04:47:40;;;;;;;8.33;2.00;;;;;;;;;;6143308;28;20050;-79
2024/01/22 04:50:42;;;;;;;3.70;2.03;;;;;;;;;;6147779;28;20439;-78
2024/01/22 04:53:44;;;;;;;4.15;1.90;;;;;;;;;;6146611;28;20055;-80
2024/01/22 04:56:47;;;;;;;4.93;2.35;;;;;;;;;;6148365;28;20519;-79
2024/01/22 04:59:49;;;;;;;3.50;1.65;;;;;;;;;;6142243;28;20042;-79
2024/01/22 05:02:50;;;;;;;4.95;1.67;;;;;;;;;;6150412;28;20058;-78
2024/01/22 05:05:54;;;;;;;2.42;1.67;;;;;;;;;;6153761;28;20065;-80
2024/01/22 05:08:56;;;;;;;3.42;1.60;;;;;;;;;;6139751;28;20047;-80
2024/01/22 05:11:58;;;;;;;3.45;1.42;;;;;;;;;;6145303;28;20117;-79
2024/01/22 05:15:01;;;;;;;1.95;1.48;;;;;;;;;;6154746;28;20092;-81
2024/01/22 05:18:13;;;;;;;2.75;1.70;;;;;;;;;;6162896;28;20066;-79
2024/01/22 05:21:21;;;;;;;3.72;1.48;;;;;;;;;;6142615;28;20070;-79
2024/01/22 05:24:23;;;;;;;4.00;1.60;;;;;;;;;;6151392;28;20118;-81
2024/01/22 05:27:25;;;;;;;4.72;1.85;;;;;;;;;;6146153;28;20039;-80
2024/01/22 05:30:27;;;;;;;2.53;1.60;;;;;;;;;;6153723;28;20458;-80
2024/01/22 05:33:29;;;;;;;2.35;1.67;;;;;;;;;;6149667;28;20051;-80
2024/01/22 05:36:30;;;;;;;2.88;1.50;;;;;;;;;;6152717;28;20525;-80
2024/01/22 05:39:32;;;;;;;3.70;1.65;;;;;;;;;;6150754;28;20046;-79
2024/01/22 05:42:34;;;;;;;2.67;1.30;;;;;;;;;;6150910;28;20058;-79
2024/01/22 05:45:36;;;;;;;2.33;1.33;;;;;;;;;;6203815;22;21516;-82
2024/01/22 05:48:38;;;;;;;2.03;1.42;;;;;;;;;;6187680;28;20042;-82
2024/01/22 05:51:40;;;;;;;6.20;1.73;;;;;;;;;;6194753;28;20054;-81
2024/01/22 05:54:42;;;;;;;6.07;1.88;;;;;;;;;;6179568;28;20070;-83
2024/01/22 05:57:43;;;;;;;3.60;1.65;;;;;;;;;;6152970;28;20090;-82
2024/01/22 06:00:45;;;;;;;2.65;1.50;;;;;;;;;;6155346;28;20053;-81
2024/01/22 06:03:48;;;;;;;3.47;1.92;;;;;;;;;;6156832;28;20066;-81
2024/01/22 06:06:51;;;;;;;4.45;2.00;;;;;;;;;;6162908;28;20077;-82
2024/01/22 06:09:53;;;;;;;3.60;2.10;;;;;;;;;;6161224;28;20055;-82
2024/01/22 06:13:07;;;;;;;4.55;1.90;;;;;;;;;;6169232;28;20078;-80
2024/01/22 06:16:10;;;;;;;4.22;1.90;;;;;;;;;;6159204;28;20047;-80
2024/01/22 06:19:12;;;;;;;;;;;;;;;;;;6148221;28;20058;-81
2024/01/22 06:22:14;;;;;;;3.67;1.83;;;;;;;;;;6158239;28;20301;-82
2024/01/22 06:25:15;;;;;;;4.18;1.80;;;;;;;;;;6161265;28;20066;-82
2024/01/22 06:28:17;;;;;;;8.48;2.25;;;;;;;;;;6160916;28;20059;-82
2024/01/22 06:31:19;;;;;;;5.35;2.42;;;;;;;;;;6169339;28;20045;-81
2024/01/22 06:34:21;;;;;;;3.78;1.90;;;;;;;;;;6164887;28;20069;-83
2024/01/22 06:37:26;;;;;;;3.73;2.00;;;;;;;;;;6167917;28;20047;-81
2024/01/22 06:40:34;;;;;;;3.72;1.90;;;;;;;;;;6165091;28;20129;-81
2024/01/22 06:43:38;;;;;;;3.75;1.88;;;;;;;;;;6165415;28;20604;-81
2024/01/22 06:46:40;;;;;;;3.58;1.95;;;;;;;;;;6152451;28;20432;-81
2024/01/22 06:49:42;;;;;;;3.65;1.95;;;;;;;;;;6169968;28;20054;-83
2024/01/22 06:52:47;;;;;;;3.55;2.15;;;;;;;;;;6166779;28;20053;-83
2024/01/22 06:55:49;;;;;;;2.63;1.70;;;;;;;;;;6190298;28;20051;-81
2024/01/22 06:58:51;;;;;;;3.55;2.10;;;;;;;;;;6177307;28;20057;-81
2024/01/22 07:01:53;;;;;;;4.32;2.00;;;;;;;;;;6179757;28;20050;-80
2024/01/22 07:04:55;;;;;;;5.43;2.20;;;;;;;;;;6167905;28;20047;-85
2024/01/22 07:07:58;;;;;;;4.93;2.30;;;;;;;;;;6171054;28;20053;-85
2024/01/22 07:11:00;;;;;;;3.30;1.70;;;;;;;;;;6153185;28;20054;-85
2024/01/22 07:14:02;;;;;;;4.97;2.05;;;;;;;;;;6170340;28;20046;-84
2024/01/22 07:17:04;;;;;;;4.30;2.55;;;;;;;;;;6171910;28;20058;-85
2024/01/22 07:20:13;;;;;;;3.63;1.98;;;;;;;;;;6150674;28;20047;-84
2024/01/22 07:23:16;;;;;;;8.23;2.20;;;;;;;;;;6165278;28;20058;-85
2024/01/22 07:26:18;;;;;;;2.70;2.00;;;;;;;;;;6168626;28;20395;-85
2024/01/22 07:29:20;;;;;;;4.05;2.58;;;;;;;;;;6162640;28;20047;-85
2024/01/22 07:32:22;;;;;;;3.30;1.83;;;;;;;;;;6170778;28;20054;-85
2024/01/22 07:35:24;;;;;;;24.15;9.50;;;;;;;;;;6167605;28;20129;-84
2024/01/22 07:38:26;;;;;;;2.35;1.83;;;;;;;;;;6152470;28;20150;-85
2024/01/22 07:41:29;;;;;;;26.13;10.33;;;;;;;;;;6165308;28;20054;-85
2024/01/22 07:44:30;;;;;;;139.15;38.67;;;;;;;;;;6161774;28;20054;-85
2024/01/22 07:47:34;;;;;;;21.75;10.00;;;;;;;;;;6164256;28;20042;-84
2024/01/22 07:50:37;;;;;;;10.38;3.78;;;;;;;;;;6160286;28;20042;-84
2024/01/22 07:53:39;;;;;;;4.00;2.88;;;;;;;;;;6162423;28;20519;-85
2024/01/22 07:56:41;;;;;;;4.78;2.45;;;;;;;;;;6158470;28;20139;-85
2024/01/22 07:59:44;;;;;;;4.32;2.90;;;;;;;;;;6167858;28;20154;-85
2024/01/22 08:02:46;;;;;;;5.60;2.63;;;;;;;;;;6143372;28;20081;-84
2024/01/22 08:05:51;;;;;;;5.45;2.85;;;;;;;;;;6134923;28;20100;-85
2024/01/22 08:08:59;;;;;;;6.30;3.33;;;;;;;;;;6071788;28;20043;-85
2024/01/22 08:12:09;;;;;;;3.42;2.60;;;;;;;;;;6083215;28;20050;-86
2024/01/22 08:15:14;;;;;;;6.70;2.70;;;;;;;;;;6080221;28;20707;-85
2024/01/22 08:18:19;;;;;;;4.85;3.15;;;;;;;;;;6134487;28;20057;-85
2024/01/22 08:21:22;;;;;;;3.88;1.75;;;;;;;;;;6114956;28;20038;-85
2024/01/22 08:24:28;;;;;;;6.05;2.80;;;;;;;;;;6140177;28;20046;-86
2024/01/22 08:27:40;;;;;;;3.38;1.90;;;;;;;;;;6123755;28;20053;-84
2024/01/22 08:30:45;;;;;;;38.28;12.40;;;;;;;;;;6163950;28;20054;-85
2024/01/22 08:33:53;;;;;;;45.55;23.25;;;;;;;;;;6090349;28;20164;-86
2024/01/22 08:36:59;;;;;;;35.03;17.50;;;;;;;;;;6143383;28;20138;-87
2024/01/22 08:40:08;;;;;;;5.75;3.13;;;;;;;;;;6113867;28;20576;-85
2024/01/22 08:43:15;;;;;;;65.30;27.55;;;;;;;;;;6104222;28;20157;-84
2024/01/22 08:46:26;;;;;;;8.82;4.65;;;;;;;;;;6099319;28;20045;-87
2024/01/22 08:49:35;;;;;;;30.58;11.43;;;;;;;;;;6135184;28;21535;-87
2024/01/22 08:52:42;;;;;;;13.98;9.75;;;;;;;;;;6159001;28;20054;-85
2024/01/22 08:55:50;;;;;;;13.85;6.57;;;;;;;;;;6144918;28;20103;-86
2024/01/22 08:59:04;;;;;;;4.85;2.90;;;;;;;;;;6136572;28;20510;-86
2024/01/22 09:02:24;;;;;;;8.65;4.60;;;;;;;;;;6130218;28;20050;-86
2024/01/22 09:05:33;;;;;;;8.00;3.90;;;;;;;;;;6151420;28;20725;-86
2024/01/22 09:08:40;;;;;;;12.80;5.65;;;;;;;;;;6157448;28;20209;-86
2024/01/22 09:11:48;;;;;;;4.30;2.28;;;;;;;;;;6142246;28;20043;-85
2024/01/22 09:14:53;;;;;;;4.85;2.22;;;;;;;;;;6079833;28;20051;-85
2024/01/22 09:18:01;;;;;;;3.00;1.90;;;;;;;;;;6115652;28;20106;-85
2024/01/22 09:21:06;;;;;;;3.92;1.77;;;;;;;;;;6125870;28;20049;-85
2024/01/22 09:24:13;;;;;;;3.58;1.90;;;;;;;;;;6143123;28;20054;-86
2024/01/22 09:27:25;;;;;;;8.52;4.00;;;;;;;;;;6088310;28;20191;-85
2024/01/22 09:30:35;;;;;;;8.32;3.83;;;;;;;;;;6086130;28;20057;-86
2024/01/22 09:33:38;;;;;;;6.88;3.33;;;;;;;;;;6096563;28;20053;-85
2024/01/22 09:36:44;;;;;;;7.95;3.35;;;;;;;;;;6160263;28;20070;-85
2024/01/22 09:39:55;;;;;;;5.07;2.80;;;;;;;;;;6138820;28;20065;-86
2024/01/22 09:43:03;;;;;;;6.93;2.97;;;;;;;;;;6150687;28;20027;-86
2024/01/22 09:46:17;;;;;;;6.18;2.35;;;;;;;;;;6180196;28;20051;-86
2024/01/22 09:49:19;;;;;;;3.08;2.20;;;;;;;;;;6106884;28;20545;-86
2024/01/22 09:52:25;;;;;;;2.22;1.60;;;;;;;;;;6104589;28;20042;-85
2024/01/22 09:55:28;;;;;;;12.10;4.93;;;;;;;;;;6076800;28;20046;-87
2024/01/22 09:58:44;;;;;;;9.35;4.95;;;;;;;;;;6120292;28;20062;-87
2024/01/22 10:01:49;;;;;;;5.85;3.05;;;;;;;;;;6146345;28;20058;-87
2024/01/22 10:04:53;;;;;;;13.90;6.15;;;;;;;;;;6143120;28;20046;-87
2024/01/22 10:07:55;;;;;;;19.90;6.93;;;;;;;;;;6125338;28;20058;-87
2024/01/22 10:11:01;;;;;;;14.15;5.28;;;;;;;;;;6135848;28;20055;-87
2024/01/22 10:14:04;;;;;;;26.88;8.40;;;;;;;;;;6105280;28;20055;-87
2024/01/22 10:17:20;;;;;;;8.93;3.45;;;;;;;;;;6141026;28;20145;-88
2024/01/22 10:20:33;;;;;;;17.98;6.78;;;;;;;;;;6115112;28;20050;-87
2024/01/22 10:24:04;;;;;;;9.18;3.72;;;;;;;;;;6135095;28;20372;-87
2024/01/22 10:27:26;;;;;;;4.80;2.33;;;;;;;;;;6108021;28;20490;-87
2024/01/22 10:30:29;;;;;;;12.00;4.13;;;;;;;;;;6126059;28;20054;-87
2024/01/22 10:33:38;;;;;;;6.85;2.67;;;;;;;;;;6140396;28;20053;-86
2024/01/22 10:36:44;;;;;;;24.13;8.75;;;;;;;;;;6149059;28;20061;-87
2024/01/22 10:40:03;;;;;;;18.98;6.20;;;;;;;;;;6104735;28;20092;-87
2024/01/22 10:43:27;;;;;;;6.47;3.17;;;;;;;;;;6136356;28;20065;-87
2024/01/22 10:46:35;;;;;;;14.30;4.72;;;;;;;;;;6137051;28;20071;-87
2024/01/22 10:49:50;;;;;;;15.15;6.15;;;;;;;;;;6132600;28;20081;-88
2024/01/22 10:52:55;;;;;;;6.65;2.95;;;;;;;;;;6146036;28;20043;-87
2024/01/22 10:56:02;;;;;;;3.03;1.95;;;;;;;;;;6123753;28;20041;-87
2024/01/22 10:59:18;;;;;;;2.53;1.73;;;;;;;;;;6163112;28;20417;-88
2024/01/22 11:02:32;;;;;;;3.03;2.65;;;;;;;;;;6133085;28;20042;-87
2024/01/22 11:05:44;;;;;;;2.80;1.95;;;;;;;;;;6139016;28;20053;-88
2024/01/22 11:08:51;;;;;;;2.63;2.20;;;;;;;;;;6111209;28;20084;-88
2024/01/22 11:12:38;;;;;;;2.22;1.63;;;;;;;;;;6131360;28;20046;-87
2024/01/22 11:16:19;;;;;;;15.73;4.47;;;;;;;;;;6146699;28;20069;-88
2024/01/22 11:19:27;;;;;;;5.35;2.75;;;;;;;;;;6140005;28;20058;-88
2024/01/22 11:22:34;;;;;;;2.95;2.45;;;;;;;;;;6144584;28;20046;-88
2024/01/22 11:25:39;;;;;;;4.18;2.00;;;;;;;;;;6098248;28;20057;-87
2024/01/22 11:29:08;;;;;;;2.30;1.77;;;;;;;;;;6152003;28;20081;-87
2024/01/22 11:32:26;;;;;;;2.00;1.10;;;;;;;;;;6159446;28;20046;-86
2024/01/22 11:35:32;;;;;;;1.75;1.20;;;;;;;;;;6138018;28;20050;-86
2024/01/22 11:39:08;;;;;;;1.00;0.90;;;;;;;;;;6141781;28;20066;-86
2024/01/22 11:42:17;;;;;;;1.83;1.30;;;;;;;;;;6132840;28;20057;-88
2024/01/22 11:45:21;;;;;;;2.28;1.35;;;;;;;;;;6129840;28;20522;-88
2024/01/22 11:48:40;;;;;;;1.38;1.27;;;;;;;;;;6130723;28;20430;-87
2024/01/22 11:51:45;;;;;;;0.80;0.80;;;;;;;;;;6117783;28;20046;-86
2024/01/22 11:54:51;;;;;;;1.90;1.25;;;;;;;;;;6115654;28;20114;-87
2024/01/22 11:58:07;;;;;;;1.13;0.90;;;;;;;;;;6138350;28;20547;-87
2024/01/22 12:01:27;;;;;;;;;;;;;;;;;;;;;
2024/01/22 12:04:30;;;;;;;3.13;1.55;;;;;;;;;;6136070;28;20047;-88
2024/01/22 12:07:53;;;;;;;2.58;1.60;;;;;;;;;;6144421;28;20359;-88
2024/01/22 12:11:09;;;;;;;5.68;2.55;;;;;;;;;;6117548;28;20045;-88
2024/01/22 12:14:14;;;;;;;1.87;1.30;;;;;;;;;;6135176;28;20043;-87
2024/01/22 12:17:18;;;;;;;2.53;1.38;;;;;;;;;;6148125;28;20042;-87
2024/01/22 12:20:26;;;;;;;1.17;1.08;;;;;;;;;;6129486;28;20488;-86
2024/01/22 12:23:33;;;;;;;1.30;1.10;;;;;;;;;;6107516;28;20046;-86
2024/01/22 12:27:00;;;;;;;1.70;1.30;;;;;;;;;;6137120;28;20074;-87
2024/01/22 12:30:09;;;;;;;2.53;1.75;;;;;;;;;;6167433;28;20046;-87
2024/01/22 12:33:20;;;;;;;1.65;1.30;;;;;;;;;;6151705;28;20091;-86
2024/01/22 12:36:27;;;;;;;1.23;1.08;;;;;;;;;;6165396;28;20047;-87
2024/01/22 12:39:35;;;;;;;2.08;1.50;;;;;;;;;;6156419;28;20125;-87
2024/01/22 12:42:47;;;;;;;2.20;1.55;;;;;;;;;;6129719;28;20174;-87
2024/01/22 12:45:50;;;;;;;1.33;1.23;;;;;;;;;;6144664;28;20130;-86
2024/01/22 12:48:55;;;;;;;3.60;1.27;;;;;;;;;;6158229;28;20064;-86
2024/01/22 12:52:10;;;;;;;2.58;1.73;;;;;;;;;;6155710;28;20052;-88
2024/01/22 12:55:16;;;;;;;2.15;1.05;;;;;;;;;;6130036;28;20046;-86
2024/01/22 12:58:19;;;;;;;1.90;1.33;;;;;;;;;;6167420;28;20049;-87
2024/01/22 13:01:21;;;;;;;1.67;1.30;;;;;;;;;;6159569;28;20047;-87
2024/01/22 13:04:28;;;;;;;1.75;1.27;;;;;;;;;;6137238;28;20097;-87
2024/01/22 13:07:36;;;;;;;2.65;1.80;;;;;;;;;;6162845;28;20078;-88
2024/01/22 13:10:46;;;;;;;3.65;1.70;;;;;;;;;;6145483;28;20154;-86
2024/01/22 13:13:49;;;;;;;2.00;1.80;;;;;;;;;;6138685;28;20429;-87
2024/01/22 13:16:53;;;;;;;1.80;1.60;;;;;;;;;;6126455;28;20054;-87
2024/01/22 13:19:56;;;;;;;2.38;1.52;;;;;;;;;;6155685;28;20137;-87
2024/01/22 13:23:03;;;;;;;2.72;2.03;;;;;;;;;;6129439;28;20046;-87
2024/01/22 13:26:12;;;;;;;2.22;1.83;;;;;;;;;;6145225;28;20116;-88
2024/01/22 13:29:17;;;;;;;5.17;3.60;;;;;;;;;;6144196;28;20044;-87
2024/01/22 13:32:25;;;;;;;2.38;1.70;;;;;;;;;;6112916;28;20319;-87
2024/01/22 13:35:30;;;;;;;2.25;1.60;;;;;;;;;;6143777;28;20448;-87
2024/01/22 13:38:42;;;;;;;2.77;1.40;;;;;;;;;;6178336;28;20052;-87
2024/01/22 13:41:48;;;;;;;1.75;1.20;;;;;;;;;;6109178;28;20131;-87
2024/01/22 13:44:57;;;;;;;2.20;0.90;;;;;;;;;;6153847;28;20050;-87
2024/01/22 13:48:02;;;;;;;1.10;0.60;;;;;;;;;;6119678;28;20054;-87
2024/01/22 13:51:08;;;;;;;3.67;0.90;;;;;;;;;;6173187;28;20830;-86
2024/01/22 13:54:18;;;;;;;1.15;0.50;;;;;;;;;;6177314;28;21028;-87
2024/01/22 13:57:23;;;;;;;2.55;0.80;;;;;;;;;;6150010;28;20045;-87
2024/01/22 14:00:30;;;;;;;1.38;0.60;;;;;;;;;;6155684;28;20034;-87
2024/01/22 14:03:40;;;;;;;1.83;0.47;;;;;;;;;;6132580;28;20078;-88
2024/01/22 14:06:43;;;;;;;0.52;0.52;;;;;;;;;;6169803;28;20046;-87
2024/01/22 14:09:46;;;;;;;2.20;0.52;;;;;;;;;;6151447;28;20713;-86
2024/01/22 14:12:50;;;;;;;1.65;0.65;;;;;;;;;;6171234;28;20133;-87
2024/01/22 14:15:53;;;;;;;1.48;0.65;;;;;;;;;;6155578;28;20053;-88
2024/01/22 14:18:55;;;;;;;1.63;0.60;;;;;;;;;;6164821;28;20058;-87
2024/01/22 14:21:58;;;;;;;2.60;0.77;;;;;;;;;;6158263;28;20047;-88
2024/01/22 14:25:00;;;;;;;3.05;0.50;;;;;;;;;;6165752;28;20101;-88
2024/01/22 14:28:05;;;;;;;1.20;0.60;;;;;;;;;;6169064;28;20102;-87
2024/01/22 14:31:07;;;;;;;4.22;0.68;;;;;;;;;;6170765;28;20134;-86
2024/01/22 14:34:09;;;;;;;1.85;0.50;;;;;;;;;;6168845;28;20054;-88
2024/01/22 14:37:12;;;;;;;2.87;0.80;;;;;;;;;;6162637;28;20055;-86
2024/01/22 14:40:16;;;;;;;2.28;0.75;;;;;;;;;;6154658;28;20055;-87
2024/01/22 14:43:18;;;;;;;2.15;0.85;;;;;;;;;;6147331;28;20215;-89
2024/01/22 14:46:24;;;;;;;1.95;0.63;;;;;;;;;;6145821;28;20126;-86
2024/01/22 14:49:31;;;;;;;3.33;1.10;;;;;;;;;;6170429;28;20125;-86
2024/01/22 14:52:34;;;;;;;3.85;0.70;;;;;;;;;;6170680;28;20057;-86
2024/01/22 14:55:36;;;;;;;2.50;0.70;;;;;;;;;;6160177;28;20146;-85
2024/01/22 14:58:40;;;;;;;2.05;0.98;;;;;;;;;;6164416;28;20312;-86
2024/01/22 15:01:42;;;;;;;2.28;0.80;;;;;;;;;;6152035;28;20051;-86
2024/01/22 15:04:46;;;;;;;5.43;0.95;;;;;;;;;;6157135;28;20705;-86
2024/01/22 15:07:50;;;;;;;5.78;1.00;;;;;;;;;;6143149;28;20101;-86
2024/01/22 15:10:52;;;;;;;3.75;0.90;;;;;;;;;;6157284;28;20053;-86
2024/01/22 15:13:54;;;;;;;5.22;1.00;;;;;;;;;;6162036;28;20821;-85
2024/01/22 15:16:57;;;;;;;6.70;0.90;;;;;;;;;;6162194;28;20118;-86
2024/01/22 15:20:00;;;;;;;2.08;0.70;;;;;;;;;;6151527;28;20053;-85
2024/01/22 15:23:02;;;;;;;9.20;1.13;;;;;;;;;;6165351;28;20038;-85
2024/01/22 15:26:04;;;;;;;4.90;0.90;;;;;;;;;;6177930;28;20114;-86
2024/01/22 15:29:06;;;;;;;4.37;1.27;;;;;;;;;;6148662;28;20055;-86
2024/01/22 15:32:08;;;;;;;3.88;1.05;;;;;;;;;;6148562;28;20469;-85
2024/01/22 15:35:12;;;;;;;4.63;1.65;;;;;;;;;;6176209;28;20035;-86
2024/01/22 15:38:17;;;;;;;5.43;1.20;;;;;;;;;;6165888;28;20046;-85
2024/01/22 15:41:22;;;;;;;3.65;1.25;;;;;;;;;;6153262;28;20042;-87
2024/01/22 15:44:24;;;;;;;5.78;1.55;;;;;;;;;;6148465;28;20121;-87
2024/01/22 15:47:32;;;;;;;7.20;1.70;;;;;;;;;;6152293;28;20062;-87
2024/01/22 15:50:41;;;;;;;6.72;1.40;;;;;;;;;;6151662;28;20113;-88
2024/01/22 15:53:45;;;;;;;9.57;2.10;;;;;;;;;;6152795;28;20067;-86
2024/01/22 15:56:47;;;;;;;6.57;1.90;;;;;;;;;;6169768;28;20053;-86
2024/01/22 15:59:49;;;;;;;4.63;1.10;;;;;;;;;;6138521;28;20729;-86
2024/01/22 16:02:51;;;;;;;3.80;1.50;;;;;;;;;;6159357;28;21097;-85
2024/01/22 16:05:55;;;;;;;;;;;;;;;;;;6153394;28;20046;-86
2024/01/22 16:08:57;;;;;;;7.03;1.87;;;;;;;;;;6156782;28;19926;-85
2024/01/22 16:11:59;;;;;;;5.53;1.27;;;;;;;;;;6165796;28;20438;-86
2024/01/22 16:15:02;;;;;;;5.95;1.35;;;;;;;;;;6160580;28;20919;-86
2024/01/22 16:18:05;;;;;;;5.90;1.42;;;;;;;;;;6166430;28;20412;-86
2024/01/22 16:21:07;;;;;;;4.30;1.30;;;;;;;;;;6169301;28;20058;-88
2024/01/22 16:24:10;;;;;;;7.63;1.27;;;;;;;;;;6172957;28;20077;-86
2024/01/22 16:27:16;;;;;;;2.58;1.08;;;;;;;;;;6147527;28;20046;-86
2024/01/22 16:30:20;;;;;;;7.35;1.30;;;;;;;;;;6152463;28;20536;-86
2024/01/22 16:33:25;;;;;;;9.63;1.67;;;;;;;;;;6155512;28;20047;-87
2024/01/22 16:36:27;;;;;;;6.90;1.55;;;;;;;;;;6145876;28;20061;-85
2024/01/22 16:39:35;;;;;;;7.75;1.80;;;;;;;;;;6149524;28;20505;-86
2024/01/22 16:42:39;;;;;;;2.47;1.00;;;;;;;;;;6164296;28;20128;-89
2024/01/22 16:45:41;;;;;;;;;;;;;;;;;;6160055;28;20050;-85
2024/01/22 16:48:43;;;;;;;10.02;1.73;;;;;;;;;;6160572;28;19936;-85
2024/01/22 16:51:46;;;;;;;5.47;1.75;;;;;;;;;;6152132;28;20058;-88
2024/01/22 16:54:48;;;;;;;9.88;1.95;;;;;;;;;;6166471;28;20141;-89
2024/01/22 16:57:50;;;;;;;6.82;2.47;;;;;;;;;;6151721;28;20046;-88
2024/01/22 17:00:56;;;;;;;8.52;1.80;;;;;;;;;;6153324;28;20117;-85
2024/01/22 17:03:58;;;;;;;10.20;2.63;;;;;;;;;;6148064;28;20094;-86
2024/01/22 17:07:05;;;;;;;6.60;2.40;;;;;;;;;;6168683;28;20053;-90
2024/01/22 17:10:07;;;;;;;9.18;1.80;;;;;;;;;;6186724;28;20042;-90
2024/01/22 17:13:09;;;;;;;10.18;3.30;;;;;;;;;;6175850;28;20042;-85
2024/01/22 17:16:15;;;;;;;5.82;1.90;;;;;;;;;;6130170;28;20105;-88
2024/01/22 17:19:17;;;;;;;5.75;2.40;;;;;;;;;;6129008;28;20105;-90
2024/01/22 17:22:20;;;;;;;5.68;1.80;;;;;;;;;;6150076;28;20057;-88
2024/01/22 17:25:22;;;;;;;4.75;1.80;;;;;;;;;;6174566;28;20042;-87
2024/01/22 17:28:29;;;;;;;5.32;1.73;;;;;;;;;;6155068;28;20043;-87
2024/01/22 17:31:43;;;;;;;6.05;2.05;;;;;;;;;;6124513;28;20042;-86
2024/01/22 17:34:47;;;;;;;6.63;1.60;;;;;;;;;;6143656;28;20122;-87
2024/01/22 17:37:52;;;;;;;7.93;2.20;;;;;;;;;;6165207;28;20054;-88
2024/01/22 17:40:54;;;;;;;7.85;1.63;;;;;;;;;;6148434;28;20058;-88
2024/01/22 17:43:56;;;;;;;4.43;1.13;;;;;;;;;;6163193;28;20062;-87
2024/01/22 17:47:01;;;;;;;6.13;1.30;;;;;;;;;;6150427;28;20066;-86
2024/01/22 17:50:04;;;;;;;7.50;1.83;;;;;;;;;;6148731;28;20061;-87
2024/01/22 17:53:06;;;;;;;6.28;1.35;;;;;;;;;;6152281;28;20110;-87
2024/01/22 17:56:08;;;;;;;4.80;1.52;;;;;;;;;;6162291;28;20054;-87
2024/01/22 17:59:10;;;;;;;12.73;1.70;;;;;;;;;;6158210;28;20042;-87
2024/01/22 18:02:13;;;;;;;8.00;1.50;;;;;;;;;;6170787;28;20035;-85
2024/01/22 18:05:14;;;;;;;9.68;2.13;;;;;;;;;;6169231;28;20114;-86
2024/01/22 18:08:16;;;;;;;6.60;1.85;;;;;;;;;;6166085;28;20043;-86
2024/01/22 18:11:18;;;;;;;7.68;1.50;;;;;;;;;;6166818;28;20047;-86
2024/01/22 18:14:20;;;;;;;7.63;2.00;;;;;;;;;;6185031;28;20047;-86
2024/01/22 18:17:23;;;;;;;5.63;0.98;;;;;;;;;;6175657;28;20077;-88
2024/01/22 18:20:25;;;;;;;8.40;1.52;;;;;;;;;;6178909;28;20050;-86
2024/01/22 18:23:31;;;;;;;5.50;1.70;;;;;;;;;;6158384;28;20058;-86
2024/01/22 18:26:33;;;;;;;4.57;1.13;;;;;;;;;;6174836;28;20053;-86
2024/01/22 18:29:35;;;;;;;10.00;1.60;;;;;;;;;;6163367;28;20113;-88